Time;durP1;ratioP1;P1;durP2;ratioP2;P2;SDS_P1;SDS_P2;PMS_P1;PMS_P2;Temp;Humidity;BMP_temperature;BMP_pressure;BME280_temperature;BME280_humidity;BME280_pressure;Samples;Min_cycle;Max_cycle;Signal;HPM_P1;HPM_P2
2022/07/27 00:01:04;;;;;;;3.72;2.58;;;16.50;99.90;;;;;;6163374;23;20022;-79
2022/07/27 00:03:32;;;;;;;2.70;2.50;;;16.50;99.90;;;;;;6157305;23;20033;-80
2022/07/27 00:05:59;;;;;;;4.97;3.60;;;16.60;99.90;;;;;;6163170;23;20024;-80
2022/07/27 00:08:27;;;;;;;4.93;2.95;;;16.60;99.90;;;;;;6153335;23;20032;-80
2022/07/27 00:10:56;;;;;;;3.03;2.72;;;16.70;99.90;;;;;;6160087;23;20024;-80
2022/07/27 00:13:24;;;;;;;3.10;2.90;;;16.80;99.90;;;;;;6137075;23;20345;-80
2022/07/27 00:15:52;;;;;;;4.97;3.45;;;16.80;99.90;;;;;;6156609;23;20033;-80
2022/07/27 00:18:20;;;;;;;2.72;2.42;;;16.90;99.90;;;;;;6158248;23;20361;-80
2022/07/27 00:20:47;;;;;;;5.45;3.28;;;16.90;99.90;;;;;;6163411;23;20024;-80
2022/07/27 00:23:15;;;;;;;4.60;2.80;;;16.90;99.90;;;;;;6158805;23;20029;-80
2022/07/27 00:25:43;;;;;;;6.97;2.35;;;16.90;99.90;;;;;;6163201;23;20021;-80
2022/07/27 00:28:14;;;;;;;19.50;3.42;;;16.80;99.90;;;;;;6154506;23;20040;-80
2022/07/27 00:30:41;;;;;;;3.00;2.78;;;16.70;99.90;;;;;;6161041;23;20028;-80
2022/07/27 00:33:09;;;;;;;3.72;2.80;;;16.70;99.90;;;;;;6162769;23;20037;-80
2022/07/27 00:35:44;;;;;;;4.22;2.72;;;16.70;99.90;;;;;;6156029;23;20032;-80
2022/07/27 00:38:12;;;;;;;3.67;2.40;;;16.70;99.90;;;;;;6161012;23;20021;-80
2022/07/27 00:40:39;;;;;;;5.22;4.15;;;16.70;99.90;;;;;;6152596;23;20030;-80
2022/07/27 00:43:07;;;;;;;2.35;2.15;;;16.70;99.90;;;;;;6158924;23;20063;-80
2022/07/27 00:45:35;;;;;;;5.95;3.10;;;16.60;99.90;;;;;;6163730;23;20024;-80
2022/07/27 00:48:03;;;;;;;4.43;2.90;;;16.60;99.90;;;;;;6155120;23;20468;-80
2022/07/27 00:50:31;;;;;;;10.13;4.13;;;16.60;99.90;;;;;;6162028;23;20024;-80
2022/07/27 00:52:59;;;;;;;4.90;2.67;;;16.70;99.90;;;;;;6156315;23;20040;-78
2022/07/27 00:55:27;;;;;;;3.22;2.92;;;16.60;99.90;;;;;;6150819;23;20025;-77
2022/07/27 00:57:58;;;;;;;4.88;3.55;;;16.60;99.90;;;;;;6156286;23;20017;-77
2022/07/27 01:00:27;;;;;;;5.78;4.18;;;16.70;99.90;;;;;;6146057;23;20033;-78
2022/07/27 01:02:54;;;;;;;4.30;3.45;;;16.60;99.90;;;;;;6152617;23;20029;-77
2022/07/27 01:05:24;;;;;;;4.93;3.22;;;16.60;99.90;;;;;;6156308;23;20025;-77
2022/07/27 01:08:05;;;;;;;2.58;2.22;;;16.60;99.90;;;;;;6146918;23;20707;-77
2022/07/27 01:10:34;;;;;;;2.90;2.60;;;16.60;99.90;;;;;;6154401;23;20021;-77
2022/07/27 01:13:07;;;;;;;2.42;2.22;;;16.60;99.90;;;;;;6156098;23;20017;-77
2022/07/27 01:15:43;;;;;;;2.47;2.15;;;16.60;99.90;;;;;;6119278;23;20018;-77
2022/07/27 01:18:38;;;;;;;3.20;2.90;;;16.60;99.90;;;;;;6119164;23;20025;-77
2022/07/27 01:21:07;;;;;;;3.65;2.15;;;16.50;99.90;;;;;;6093528;23;20033;-77
2022/07/27 01:23:35;;;;;;;3.08;2.75;;;16.50;99.90;;;;;;6149131;23;20033;-77
2022/07/27 01:26:04;;;;;;;3.38;3.17;;;16.60;99.90;;;;;;6156229;23;20024;-77
2022/07/27 01:28:36;;;;;;;5.47;3.08;;;16.50;99.90;;;;;;6144798;23;20033;-77
2022/07/27 01:31:03;;;;;;;3.30;3.00;;;16.50;99.90;;;;;;6151743;23;20032;-77
2022/07/27 01:33:31;;;;;;;2.70;2.42;;;16.40;99.90;;;;;;6155715;23;20567;-77
2022/07/27 01:35:59;;;;;;;3.70;3.40;;;16.40;99.90;;;;;;6147964;23;20025;-77
2022/07/27 01:38:26;;;;;;;4.90;2.25;;;16.40;99.90;;;;;;6151355;23;20036;-77
2022/07/27 01:40:55;;;;;;;3.50;3.20;;;16.40;99.90;;;;;;6154912;23;20017;-77
2022/07/27 01:43:22;;;;;;;3.63;2.05;;;16.30;99.90;;;;;;6150729;23;20025;-77
2022/07/27 01:45:50;;;;;;;2.70;2.45;;;16.10;99.90;;;;;;6155882;23;20024;-77
2022/07/27 01:48:19;;;;;;;3.67;3.13;;;16.00;99.90;;;;;;6146390;23;20753;-77
2022/07/27 01:50:46;;;;;;;2.95;2.75;;;15.90;99.90;;;;;;6153244;23;20022;-77
2022/07/27 01:53:14;;;;;;;4.05;2.90;;;15.90;99.90;;;;;;6155189;23;20047;-77
2022/07/27 01:55:42;;;;;;;3.00;2.72;;;16.00;99.90;;;;;;6148884;23;20134;-77
2022/07/27 01:58:10;;;;;;;4.25;2.90;;;16.00;99.90;;;;;;6155455;23;20013;-77
2022/07/27 02:00:38;;;;;;;4.35;3.15;;;16.10;99.90;;;;;;6144547;23;20749;-77
2022/07/27 02:03:08;;;;;;;4.97;2.75;;;16.00;99.90;;;;;;6151377;23;20026;-77
2022/07/27 02:05:38;;;;;;;19.35;3.45;;;16.10;99.90;;;;;;6129459;23;20025;-77
2022/07/27 02:08:07;;;;;;;4.78;2.80;;;16.10;99.90;;;;;;6146825;23;20025;-77
2022/07/27 02:10:36;;;;;;;3.22;2.80;;;16.20;99.90;;;;;;6152710;23;20026;-77
2022/07/27 02:13:03;;;;;;;5.78;3.10;;;16.10;99.90;;;;;;6129216;23;20024;-77
2022/07/27 02:15:49;;;;;;;3.25;2.95;;;16.10;99.90;;;;;;6148898;23;20036;-77
2022/07/27 02:18:21;;;;;;;8.10;2.83;;;16.00;99.90;;;;;;6154069;23;20029;-78
2022/07/27 02:21:04;;;;;;;5.50;3.10;;;15.80;99.90;;;;;;6155728;23;20033;-77
2022/07/27 02:23:34;;;;;;;4.25;2.92;;;15.70;99.90;;;;;;6149570;23;20033;-77
2022/07/27 02:26:02;;;;;;;5.63;3.15;;;15.50;99.90;;;;;;6154934;23;20018;-77
2022/07/27 02:28:31;;;;;;;3.90;3.47;;;15.50;99.90;;;;;;6145018;23;20036;-77
2022/07/27 02:30:59;;;;;;;3.55;3.00;;;15.50;99.90;;;;;;6118238;23;20037;-78
2022/07/27 02:33:27;;;;;;;5.38;3.17;;;15.30;99.90;;;;;;6154450;23;20016;-77
2022/07/27 02:36:06;;;;;;;14.90;4.10;;;15.20;99.90;;;;;;6150048;23;20519;-88
2022/07/27 02:38:34;;;;;;;12.52;2.85;;;15.10;99.90;;;;;;6074525;23;20030;-87
2022/07/27 02:41:02;;;;;;;4.93;2.92;;;15.10;99.90;;;;;;6075803;23;20030;-87
2022/07/27 02:43:30;;;;;;;5.55;2.67;;;15.10;99.90;;;;;;6098782;23;20037;-87
2022/07/27 02:45:58;;;;;;;3.60;3.22;;;15.10;99.90;;;;;;6099059;23;20025;-87
2022/07/27 02:48:26;;;;;;;13.02;3.35;;;15.10;99.90;;;;;;6123751;23;20072;-87
2022/07/27 02:50:59;;;;;;;3.53;2.35;;;15.10;99.90;;;;;;6100986;23;20014;-87
2022/07/27 02:53:28;;;;;;;3.65;3.35;;;15.10;99.90;;;;;;6075318;23;20893;-86
2022/07/27 02:55:56;;;;;;;3.53;3.22;;;15.10;99.90;;;;;;6123672;23;20479;-88
2022/07/27 02:58:25;;;;;;;4.50;2.70;;;15.10;99.90;;;;;;6098826;23;20021;-87
2022/07/27 03:00:52;;;;;;;3.65;3.38;;;15.00;99.90;;;;;;6099057;23;20464;-77
2022/07/27 03:03:25;;;;;;;3.33;3.03;;;14.90;99.90;;;;;;6148741;23;20021;-77
2022/07/27 03:06:05;;;;;;;3.65;3.35;;;14.90;99.90;;;;;;6130272;23;20018;-77
2022/07/27 03:08:33;;;;;;;3.38;2.88;;;14.90;99.90;;;;;;6143989;23;20030;-77
2022/07/27 03:11:01;;;;;;;3.90;3.50;;;14.90;99.90;;;;;;6150885;23;20033;-77
2022/07/27 03:13:29;;;;;;;5.10;2.60;;;14.90;99.90;;;;;;6154926;23;20013;-77
2022/07/27 03:15:57;;;;;;;8.90;3.28;;;14.90;99.90;;;;;;6146981;23;20532;-77
2022/07/27 03:18:25;;;;;;;3.28;2.97;;;14.90;99.90;;;;;;6152807;23;20020;-77
2022/07/27 03:20:52;;;;;;;4.28;3.88;;;14.80;99.90;;;;;;6155048;23;20464;-77
2022/07/27 03:23:21;;;;;;;9.30;3.10;;;14.70;99.90;;;;;;6150744;23;20024;-78
2022/07/27 03:25:49;;;;;;;4.65;3.63;;;14.60;99.90;;;;;;6156402;23;20018;-77
2022/07/27 03:28:16;;;;;;;3.08;2.85;;;14.60;99.90;;;;;;6121650;23;20048;-77
2022/07/27 03:30:44;;;;;;;3.75;2.85;;;14.40;99.90;;;;;;6153925;23;20439;-77
2022/07/27 03:33:12;;;;;;;6.65;3.72;;;14.40;99.90;;;;;;6156182;23;20017;-78
2022/07/27 03:35:39;;;;;;;10.60;3.30;;;14.50;99.90;;;;;;6150054;23;20806;-77
2022/07/27 03:38:07;;;;;;;3.85;3.38;;;14.50;99.90;;;;;;6153758;23;20021;-77
2022/07/27 03:40:38;;;;;;;8.00;3.08;;;14.50;99.90;;;;;;6108437;23;20460;-77
2022/07/27 03:43:06;;;;;;;4.65;3.10;;;14.60;99.90;;;;;;6126014;23;20405;-77
2022/07/27 03:45:34;;;;;;;4.25;3.85;;;14.70;99.90;;;;;;6155987;23;20017;-77
2022/07/27 03:48:02;;;;;;;3.83;3.42;;;14.70;99.90;;;;;;6148037;23;20028;-76
2022/07/27 03:50:30;;;;;;;4.95;3.15;;;14.60;99.90;;;;;;6154310;23;20524;-77
2022/07/27 03:52:58;;;;;;;4.55;3.00;;;14.50;99.90;;;;;;6155746;23;20013;-77
2022/07/27 03:55:26;;;;;;;3.83;3.53;;;14.50;99.90;;;;;;6150565;23;20022;-77
2022/07/27 03:57:54;;;;;;;5.60;3.97;;;14.50;99.90;;;;;;6155532;23;20021;-77
2022/07/27 04:00:21;;;;;;;4.07;3.60;;;14.50;99.90;;;;;;6146922;23;20036;-77
2022/07/27 04:02:50;;;;;;;5.65;3.78;;;14.60;99.90;;;;;;6150245;23;20053;-77
2022/07/27 04:05:19;;;;;;;4.10;3.75;;;14.70;99.90;;;;;;6155808;23;20014;-77
2022/07/27 04:07:47;;;;;;;4.13;3.80;;;14.80;99.90;;;;;;6122496;23;20583;-77
2022/07/27 04:10:22;;;;;;;3.55;3.25;;;14.80;99.90;;;;;;6155385;23;20017;-77
2022/07/27 04:12:52;;;;;;;2.97;2.78;;;14.80;99.90;;;;;;6154766;23;20013;-77
2022/07/27 04:15:20;;;;;;;3.95;3.65;;;14.90;99.90;;;;;;6150621;23;20419;-77
2022/07/27 04:17:48;;;;;;;6.32;3.53;;;14.90;99.90;;;;;;6156074;23;20013;-77
2022/07/27 04:20:23;;;;;;;3.38;3.15;;;14.90;99.90;;;;;;6147147;23;20029;-77
2022/07/27 04:22:51;;;;;;;6.03;2.92;;;15.00;99.90;;;;;;6153169;23;20036;-77
2022/07/27 04:25:19;;;;;;;5.85;3.33;;;15.00;99.90;;;;;;6155939;23;20029;-77
2022/07/27 04:27:47;;;;;;;4.55;3.63;;;15.00;99.90;;;;;;6123438;23;20033;-77
2022/07/27 04:30:14;;;;;;;3.38;3.10;;;15.00;99.90;;;;;;6155709;23;20024;-77
2022/07/27 04:32:42;;;;;;;8.15;3.75;;;15.00;99.90;;;;;;6117653;23;20022;-77
2022/07/27 04:35:10;;;;;;;4.22;3.92;;;15.00;99.90;;;;;;6153027;23;20017;-77
2022/07/27 04:37:38;;;;;;;3.08;2.83;;;15.00;99.90;;;;;;6121498;23;20554;-77
2022/07/27 04:40:24;;;;;;;3.72;3.33;;;14.90;99.90;;;;;;6122712;23;20045;-76
2022/07/27 04:42:51;;;;;;;2.90;2.70;;;14.90;99.90;;;;;;6097883;23;20468;-76
2022/07/27 04:45:19;;;;;;;14.05;3.92;;;14.90;99.90;;;;;;6131253;23;20017;-76
2022/07/27 04:47:47;;;;;;;5.43;3.85;;;15.00;99.90;;;;;;6121018;23;20025;-76
2022/07/27 04:50:15;;;;;;;4.18;3.05;;;15.10;99.90;;;;;;6156183;23;20021;-76
2022/07/27 04:52:44;;;;;;;4.85;2.88;;;15.20;99.90;;;;;;6147013;23;20055;-77
2022/07/27 04:55:12;;;;;;;3.95;3.65;;;15.20;99.90;;;;;;6154137;23;20017;-77
2022/07/27 04:57:42;;;;;;;3.60;3.22;;;15.30;99.90;;;;;;6158601;23;20013;-76
2022/07/27 05:00:10;;;;;;;4.10;3.80;;;15.30;99.90;;;;;;6149963;23;20072;-77
2022/07/27 05:02:39;;;;;;;3.45;3.15;;;15.40;99.90;;;;;;6143414;23;20251;-77
2022/07/27 05:05:08;;;;;;;2.97;2.63;;;15.40;99.90;;;;;;6158168;23;20024;-77
2022/07/27 05:07:36;;;;;;;8.38;2.92;;;15.50;99.90;;;;;;6153811;23;20044;-78
2022/07/27 05:10:04;;;;;;;3.63;3.33;;;15.60;99.90;;;;;;6160370;23;20013;-78
2022/07/27 05:12:32;;;;;;;4.68;3.05;;;15.60;99.90;;;;;;6149926;23;20361;-78
2022/07/27 05:14:59;;;;;;;4.63;3.67;;;15.70;99.90;;;;;;6157739;23;20021;-79
2022/07/27 05:17:28;;;;;;;4.47;3.00;;;15.80;99.90;;;;;;6160588;23;20014;-78
2022/07/27 05:19:56;;;;;;;14.50;4.30;;;15.80;99.90;;;;;;6150160;23;20029;-78
2022/07/27 05:22:24;;;;;;;4.15;3.58;;;15.90;99.90;;;;;;6158683;23;20022;-78
2022/07/27 05:24:52;;;;;;;3.42;2.70;;;16.00;99.90;;;;;;6134189;23;20028;-78
2022/07/27 05:27:19;;;;;;;3.35;3.05;;;16.00;99.90;;;;;;6155110;23;20029;-78
2022/07/27 05:29:48;;;;;;;7.10;4.82;;;16.00;99.90;;;;;;6159374;23;20554;-77
2022/07/27 05:32:16;;;;;;;5.93;4.03;;;16.00;99.90;;;;;;6150330;23;20021;-77
2022/07/27 05:34:45;;;;;;;4.03;2.72;;;16.10;99.90;;;;;;6156971;23;20021;-77
2022/07/27 05:37:12;;;;;;;19.45;4.47;;;16.00;99.90;;;;;;6158655;23;20017;-77
2022/07/27 05:39:41;;;;;;;3.28;3.08;;;16.00;99.90;;;;;;6151120;23;20025;-77
2022/07/27 05:42:09;;;;;;;3.53;3.20;;;16.00;99.90;;;;;;6159492;23;20504;-77
2022/07/27 05:44:37;;;;;;;5.43;3.38;;;16.10;99.90;;;;;;6149034;23;20492;-78
2022/07/27 05:47:04;;;;;;;3.30;3.00;;;16.10;99.90;;;;;;6154343;23;20044;-77
2022/07/27 05:49:33;;;;;;;10.63;4.43;;;16.10;99.90;;;;;;6132815;23;20017;-77
2022/07/27 05:52:00;;;;;;;4.95;3.92;;;16.20;99.90;;;;;;6150862;23;20361;-77
2022/07/27 05:54:28;;;;;;;10.85;3.70;;;16.20;99.90;;;;;;6157587;23;20413;-77
2022/07/27 05:56:57;;;;;;;3.28;3.08;;;16.30;99.90;;;;;;6158925;23;20021;-78
2022/07/27 05:59:24;;;;;;;3.10;2.83;;;16.40;99.90;;;;;;6122350;23;20037;-77
2022/07/27 06:01:52;;;;;;;5.47;4.30;;;16.50;99.90;;;;;;6159137;23;20017;-77
2022/07/27 06:04:20;;;;;;;4.28;3.15;;;16.60;99.90;;;;;;6150659;23;20699;-77
2022/07/27 06:09:33;;;;;;;3.55;3.25;;;16.70;99.90;;;;;;6158055;23;20017;-78
2022/07/27 06:12:01;;;;;;;16.65;4.22;;;16.80;99.90;;;;;;6150468;23;20034;-77
2022/07/27 06:14:29;;;;;;;3.05;2.85;;;16.90;99.90;;;;;;6123430;23;20021;-77
2022/07/27 06:16:57;;;;;;;2.80;2.58;;;17.00;99.90;;;;;;6157334;23;20020;-77
2022/07/27 06:19:25;;;;;;;2.63;2.42;;;17.10;99.90;;;;;;6150497;23;20036;-77
2022/07/27 06:22:05;;;;;;;4.45;3.35;;;17.20;99.90;;;;;;6158727;23;20022;-77
2022/07/27 06:24:33;;;;;;;5.93;2.58;;;17.20;99.90;;;;;;6149215;23;20028;-77
2022/07/27 06:27:07;;;;;;;3.83;3.33;;;17.20;99.90;;;;;;6129421;23;20025;-77
2022/07/27 06:29:35;;;;;;;3.63;2.53;;;17.30;99.90;;;;;;6158738;23;20029;-77
2022/07/27 06:32:02;;;;;;;6.00;3.63;;;17.30;99.90;;;;;;6150713;23;20025;-77
2022/07/27 06:34:31;;;;;;;6.50;2.90;;;17.40;99.90;;;;;;6157712;23;20021;-77
2022/07/27 06:37:00;;;;;;;5.85;2.97;;;17.40;99.90;;;;;;6158111;23;20095;-77
2022/07/27 06:39:28;;;;;;;3.25;2.80;;;17.40;99.90;;;;;;6150950;23;20029;-77
2022/07/27 06:41:56;;;;;;;3.88;3.53;;;17.40;99.90;;;;;;6158837;23;20024;-77
2022/07/27 06:44:24;;;;;;;7.07;2.40;;;17.50;99.90;;;;;;6149167;23;20029;-77
2022/07/27 06:46:52;;;;;;;3.17;2.72;;;17.60;99.90;;;;;;6154773;23;20064;-77
2022/07/27 06:49:20;;;;;;;5.53;3.90;;;17.70;99.90;;;;;;6158438;23;20017;-77
2022/07/27 06:51:48;;;;;;;3.20;2.90;;;17.70;99.90;;;;;;6151392;23;20796;-77
2022/07/27 06:54:15;;;;;;;4.07;3.22;;;17.70;99.90;;;;;;6158356;23;20029;-77
2022/07/27 06:56:43;;;;;;;3.90;3.53;;;17.80;99.90;;;;;;6147369;23;20026;-77
2022/07/27 06:59:11;;;;;;;4.68;2.15;;;17.80;99.90;;;;;;6154315;23;20026;-77
2022/07/27 07:01:40;;;;;;;3.38;3.08;;;17.90;99.90;;;;;;6158692;23;20025;-77
2022/07/27 07:04:14;;;;;;;4.75;2.58;;;17.90;99.90;;;;;;6125126;23;20031;-77
2022/07/27 07:06:43;;;;;;;4.90;2.92;;;17.90;99.90;;;;;;6155942;23;20032;-77
2022/07/27 07:09:11;;;;;;;3.00;2.72;;;17.90;99.90;;;;;;6158015;23;20018;-77
2022/07/27 07:11:39;;;;;;;2.60;2.40;;;18.00;99.90;;;;;;6153283;23;20536;-79
2022/07/27 07:14:07;;;;;;;6.25;1.88;;;18.00;99.90;;;;;;6121871;23;20021;-77
2022/07/27 07:16:35;;;;;;;3.17;2.85;;;18.00;99.90;;;;;;6121964;23;20025;-77
2022/07/27 07:19:04;;;;;;;2.90;2.70;;;18.10;99.90;;;;;;6155071;23;20029;-77
2022/07/27 07:21:32;;;;;;;8.65;3.53;;;18.20;99.90;;;;;;6158913;23;20704;-77
2022/07/27 07:23:59;;;;;;;2.92;2.30;;;18.10;99.90;;;;;;6150572;23;20030;-78
2022/07/27 07:26:27;;;;;;;3.15;2.38;;;18.10;99.90;;;;;;6157265;23;20017;-78
2022/07/27 07:28:55;;;;;;;2.95;2.55;;;18.10;99.90;;;;;;6157178;23;20014;-78
2022/07/27 07:31:22;;;;;;;2.97;2.78;;;18.20;99.90;;;;;;6153624;23;20033;-77
2022/07/27 07:33:51;;;;;;;3.28;2.97;;;18.20;99.90;;;;;;6132966;23;20017;-77
2022/07/27 07:36:19;;;;;;;4.55;2.30;;;18.30;99.90;;;;;;6149489;23;20029;-77
2022/07/27 07:38:49;;;;;;;3.38;1.95;;;18.60;99.90;;;;;;6152323;23;20025;-77
2022/07/27 07:41:18;;;;;;;2.40;2.20;;;18.80;99.90;;;;;;6158860;23;20013;-78
2022/07/27 07:43:46;;;;;;;2.80;2.53;;;18.80;99.90;;;;;;6152299;23;20033;-77
2022/07/27 07:46:18;;;;;;;2.00;1.85;;;18.80;99.90;;;;;;6158954;23;20014;-78
2022/07/27 07:48:48;;;;;;;4.57;2.28;;;18.80;99.90;;;;;;6147249;23;20028;-77
2022/07/27 07:51:17;;;;;;;4.22;2.78;;;18.80;99.90;;;;;;6153987;23;20029;-77
2022/07/27 07:53:45;;;;;;;2.30;1.80;;;18.90;99.90;;;;;;6158509;23;20018;-77
2022/07/27 07:56:13;;;;;;;3.22;2.20;;;19.00;99.90;;;;;;6149605;23;20488;-77
2022/07/27 07:58:44;;;;;;;5.68;2.47;;;19.00;99.90;;;;;;6155699;23;20453;-77
2022/07/27 08:01:18;;;;;;;3.83;2.42;;;19.10;99.90;;;;;;6156810;23;20025;-77
2022/07/27 08:03:47;;;;;;;2.45;1.92;;;19.20;99.90;;;;;;6151586;23;20025;-78
2022/07/27 08:06:18;;;;;;;4.03;1.80;;;19.30;99.90;;;;;;6156903;23;20021;-77
2022/07/27 08:08:52;;;;;;;12.50;2.17;;;19.30;99.90;;;;;;6146463;23;20033;-77
2022/07/27 08:11:31;;;;;;;4.75;2.25;;;19.40;99.90;;;;;;6154626;23;20025;-77
2022/07/27 08:14:07;;;;;;;2.75;2.20;;;19.50;99.90;;;;;;6160331;23;20040;-77
2022/07/27 08:16:36;;;;;;;2.22;1.83;;;19.60;99.90;;;;;;6149605;23;20044;-77
2022/07/27 08:19:08;;;;;;;4.15;2.30;;;19.70;99.90;;;;;;6148161;23;20017;-77
2022/07/27 08:21:36;;;;;;;6.15;2.45;;;19.80;99.90;;;;;;6159591;23;20530;-77
2022/07/27 08:24:05;;;;;;;1.90;1.80;;;19.90;99.90;;;;;;6151906;23;20056;-77
2022/07/27 08:26:34;;;;;;;1.55;1.45;;;20.00;99.90;;;;;;6158671;23;20445;-77
2022/07/27 08:29:03;;;;;;;4.45;2.30;;;20.00;99.90;;;;;;6159459;23;20765;-78
2022/07/27 08:31:40;;;;;;;2.20;2.10;;;20.10;99.90;;;;;;6153248;23;20021;-77
2022/07/27 08:34:20;;;;;;;2.40;2.00;;;20.10;99.90;;;;;;6159397;23;20017;-77
2022/07/27 08:36:48;;;;;;;3.38;2.08;;;20.10;99.90;;;;;;6158898;23;21040;-77
2022/07/27 08:39:17;;;;;;;3.95;2.30;;;20.20;99.90;;;;;;6149962;23;20032;-77
2022/07/27 08:42:09;;;;;;;2.10;1.88;;;20.20;99.90;;;;;;6158965;23;20032;-77
2022/07/27 08:44:40;;;;;;;2.38;1.98;;;20.30;99.90;;;;;;6149769;23;20686;-77
2022/07/27 08:47:10;;;;;;;12.48;2.83;;;20.40;99.90;;;;;;6155986;23;20022;-78
2022/07/27 08:49:40;;;;;;;2.30;1.70;;;20.50;99.90;;;;;;6160122;23;20022;-78
2022/07/27 08:52:11;;;;;;;4.00;2.10;;;20.60;99.90;;;;;;6151508;23;20025;-78
2022/07/27 08:54:40;;;;;;;2.75;2.25;;;20.70;99.90;;;;;;6158427;23;20337;-78
2022/07/27 08:57:09;;;;;;;4.47;2.50;;;20.90;99.90;;;;;;6160049;23;20021;-78
2022/07/27 08:59:37;;;;;;;2.00;1.80;;;21.10;99.90;;;;;;6154085;23;20707;-77
2022/07/27 09:02:11;;;;;;;2.40;1.63;;;21.20;99.90;;;;;;6159736;23;20017;-77
2022/07/27 09:04:40;;;;;;;5.88;2.17;;;21.30;99.90;;;;;;6150040;23;20028;-77
2022/07/27 09:07:08;;;;;;;2.50;2.30;;;21.30;99.90;;;;;;6154671;23;20021;-77
2022/07/27 09:09:46;;;;;;;2.00;1.75;;;21.20;99.90;;;;;;6159451;23;20024;-78
2022/07/27 09:12:16;;;;;;;2.83;2.53;;;21.20;99.90;;;;;;6151715;23;20025;-79
2022/07/27 09:14:45;;;;;;;2.67;2.03;;;21.20;99.90;;;;;;6157495;23;20018;-77
2022/07/27 09:17:25;;;;;;;2.10;1.92;;;21.20;99.90;;;;;;6159421;23;20014;-77
2022/07/27 09:20:16;;;;;;;5.38;2.63;;;21.20;99.90;;;;;;6148419;23;20049;-77
2022/07/27 09:22:51;;;;;;;5.38;2.40;;;21.00;99.90;;;;;;6156184;23;20453;-77
2022/07/27 09:25:22;;;;;;;2.88;2.47;;;20.90;99.90;;;;;;6158995;23;20479;-77
2022/07/27 09:28:12;;;;;;;2.47;2.28;;;20.80;99.90;;;;;;6149985;23;20029;-78
2022/07/27 09:30:44;;;;;;;2.08;1.88;;;20.90;99.90;;;;;;6097832;23;20021;-77
2022/07/27 09:33:14;;;;;;;2.17;1.90;;;20.90;99.90;;;;;;6132370;23;20017;-79
2022/07/27 09:35:45;;;;;;;2.47;2.08;;;21.00;99.90;;;;;;6127190;23;20032;-77
2022/07/27 09:38:23;;;;;;;4.20;3.55;;;21.10;99.90;;;;;;6155284;23;20022;-77
2022/07/27 09:41:03;;;;;;;2.67;2.47;;;21.30;99.90;;;;;;6179785;23;20480;-78
2022/07/27 09:43:46;;;;;;;;;;;21.50;99.90;;;;;;6154585;23;20025;-78
2022/07/27 09:46:40;;;;;;;1.75;1.63;;;21.60;99.90;;;;;;6158181;23;19920;-78
2022/07/27 09:49:29;;;;;;;1.88;1.77;;;21.70;99.90;;;;;;6159292;23;20013;-78
2022/07/27 09:51:59;;;;;;;1.50;1.40;;;21.50;99.90;;;;;;6150557;23;20044;-78
2022/07/27 09:54:43;;;;;;;2.55;2.10;;;21.40;99.90;;;;;;6157443;23;20013;-77
2022/07/27 09:57:11;;;;;;;5.00;2.17;;;21.40;99.90;;;;;;6107777;23;20013;-77
2022/07/27 09:59:40;;;;;;;2.00;1.45;;;21.40;99.90;;;;;;6152016;23;20437;-77
2022/07/27 10:02:12;;;;;;;1.88;1.77;;;21.40;99.90;;;;;;6158026;23;20029;-77
2022/07/27 10:04:41;;;;;;;1.85;1.75;;;21.40;99.90;;;;;;6148580;23;20048;-77
2022/07/27 10:07:12;;;;;;;6.53;1.33;;;21.70;99.90;;;;;;6153938;23;20068;-77
2022/07/27 10:09:41;;;;;;;2.20;2.00;;;21.80;99.90;;;;;;6158559;23;20023;-77
2022/07/27 10:12:09;;;;;;;4.72;1.85;;;21.90;99.90;;;;;;6150283;23;20025;-77
2022/07/27 10:14:37;;;;;;;7.18;2.53;;;21.90;99.90;;;;;;6158498;23;20322;-78
2022/07/27 10:17:09;;;;;;;2.22;2.00;;;22.00;99.90;;;;;;6158298;23;20017;-80
2022/07/27 10:19:46;;;;;;;2.53;1.75;;;22.00;99.90;;;;;;6153902;23;20021;-78
2022/07/27 10:22:15;;;;;;;2.38;2.17;;;22.00;99.90;;;;;;6123107;23;20459;-78
2022/07/27 10:24:43;;;;;;;2.70;2.10;;;22.00;99.90;;;;;;6098975;23;20056;-78
2022/07/27 10:27:27;;;;;;;3.20;1.40;;;22.00;99.90;;;;;;6153739;23;20022;-81
2022/07/27 10:29:57;;;;;;;19.42;2.83;;;21.90;99.90;;;;;;6131682;23;20028;-81
2022/07/27 10:32:29;;;;;;;3.15;1.67;;;21.80;99.90;;;;;;6150762;23;20029;-82
2022/07/27 10:35:00;;;;;;;9.27;2.28;;;21.70;99.90;;;;;;6157365;23;20344;-82
2022/07/27 10:37:30;;;;;;;1.92;1.83;;;21.70;99.90;;;;;;6133357;23;20029;-82
2022/07/27 10:43:04;;;;;;;1.40;1.30;;;21.70;99.90;;;;;;6157153;23;20700;-78
2022/07/27 10:45:42;;;;;;;2.53;1.85;;;21.70;99.90;;;;;;6133606;23;20333;-78
2022/07/27 10:48:41;;;;;;;2.40;1.58;;;21.70;99.90;;;;;;6149436;23;20032;-77
2022/07/27 10:51:32;;;;;;;8.77;2.03;;;21.70;99.90;;;;;;6153900;23;20022;-78
2022/07/27 10:54:18;;;;;;;7.15;2.85;;;21.70;99.90;;;;;;6158701;23;20341;-78
2022/07/27 10:56:48;;;;;;;1.90;1.80;;;21.80;99.90;;;;;;6147981;23;20345;-78
2022/07/27 10:59:47;;;;;;;3.08;2.03;;;21.80;99.90;;;;;;6154001;23;20030;-79
2022/07/27 11:02:41;;;;;;;2.65;1.75;;;21.90;99.90;;;;;;6143335;23;20029;-77
2022/07/27 11:05:10;;;;;;;2.25;2.15;;;21.90;99.90;;;;;;6158897;23;20018;-77
2022/07/27 11:08:00;;;;;;;3.60;2.78;;;21.90;99.90;;;;;;6150458;23;20025;-78
2022/07/27 11:10:51;;;;;;;2.10;1.95;;;21.70;99.90;;;;;;6148557;23;20036;-80
2022/07/27 11:13:23;;;;;;;1.55;1.45;;;21.70;99.90;;;;;;6149213;23;20014;-78
2022/07/27 11:16:08;;;;;;;2.75;2.53;;;21.80;99.90;;;;;;6098502;23;20025;-79
2022/07/27 11:19:05;;;;;;;4.10;1.90;;;21.80;99.90;;;;;;6134614;23;20072;-79
2022/07/27 11:21:37;;;;;;;7.00;2.25;;;21.80;99.90;;;;;;6149798;23;20014;-78
2022/07/27 11:24:16;;;;;;;2.75;1.90;;;22.00;99.90;;;;;;6151822;23;20032;-78
2022/07/27 11:26:50;;;;;;;3.70;2.20;;;22.10;99.90;;;;;;6157070;23;20025;-78
2022/07/27 11:29:21;;;;;;;2.63;2.42;;;22.20;99.90;;;;;;6159669;23;20013;-79
2022/07/27 11:31:53;;;;;;;3.60;3.30;;;22.40;99.90;;;;;;6126031;23;20368;-79
2022/07/27 11:34:31;;;;;;;1.70;1.60;;;22.40;99.90;;;;;;6121712;23;20029;-78
2022/07/27 11:37:04;;;;;;;2.42;1.83;;;22.30;99.90;;;;;;6147305;23;20037;-79
2022/07/27 11:39:34;;;;;;;9.32;3.05;;;22.40;99.90;;;;;;6123001;23;20591;-80
2022/07/27 11:42:23;;;;;;;1.88;1.67;;;22.50;99.90;;;;;;6132415;23;20013;-78
2022/07/27 11:44:51;;;;;;;2.35;1.98;;;22.40;99.90;;;;;;6132514;23;20021;-77
2022/07/27 11:47:22;;;;;;;2.03;1.65;;;22.30;99.90;;;;;;6154290;23;20030;-77
2022/07/27 11:49:50;;;;;;;2.20;1.92;;;22.40;99.90;;;;;;6133048;23;20022;-78
2022/07/27 11:52:18;;;;;;;2.00;1.90;;;22.30;99.90;;;;;;6149748;23;20033;-77
2022/07/27 11:54:51;;;;;;;5.13;3.08;;;22.20;99.90;;;;;;6156742;23;20350;-78
2022/07/27 11:57:19;;;;;;;1.60;1.50;;;22.10;99.90;;;;;;6159652;23;20338;-77
2022/07/27 11:59:47;;;;;;;2.10;1.85;;;22.20;99.90;;;;;;6152577;23;20025;-80
2022/07/27 12:02:18;;;;;;;4.32;1.88;;;22.20;99.90;;;;;;6158165;23;20429;-77
2022/07/27 12:04:49;;;;;;;5.50;1.85;;;22.40;99.90;;;;;;6147839;23;20036;-76
2022/07/27 12:07:28;;;;;;;3.35;2.20;;;22.50;99.90;;;;;;6151595;23;20025;-75
2022/07/27 12:10:00;;;;;;;5.95;1.98;;;22.70;99.90;;;;;;6157784;23;20412;-79
2022/07/27 12:12:31;;;;;;;1.73;1.58;;;22.90;99.90;;;;;;6148893;23;20021;-79
2022/07/27 12:15:19;;;;;;;5.30;2.45;;;23.20;99.90;;;;;;6154793;23;20037;-79
2022/07/27 12:18:07;;;;;;;2.15;1.58;;;23.20;99.90;;;;;;6158127;23;20013;-80
2022/07/27 12:20:36;;;;;;;3.97;2.22;;;23.30;99.90;;;;;;6146588;23;20029;-79
2022/07/27 12:23:06;;;;;;;9.80;2.67;;;23.20;99.90;;;;;;6121027;23;20025;-79
2022/07/27 12:25:35;;;;;;;1.40;1.25;;;23.00;99.90;;;;;;6122886;23;20018;-79
2022/07/27 12:28:08;;;;;;;3.83;1.70;;;23.10;99.90;;;;;;6121697;23;20349;-79
2022/07/27 12:30:35;;;;;;;2.78;1.92;;;23.40;99.90;;;;;;6127128;23;20013;-79
2022/07/27 12:33:24;;;;;;;1.60;1.50;;;23.60;99.90;;;;;;6120068;23;20028;-79
2022/07/27 12:35:52;;;;;;;4.25;1.38;;;23.70;99.90;;;;;;6125797;23;20022;-81
2022/07/27 12:38:19;;;;;;;1.83;1.73;;;23.80;99.90;;;;;;6128968;23;20445;-80
2022/07/27 12:40:56;;;;;;;2.35;1.73;;;23.70;99.90;;;;;;6122984;23;20018;-80
2022/07/27 12:43:29;;;;;;;2.03;1.65;;;23.60;99.90;;;;;;6097980;23;20017;-80
2022/07/27 12:46:10;;;;;;;1.33;1.20;;;23.20;99.90;;;;;;6124302;23;20039;-80
2022/07/27 12:48:41;;;;;;;7.88;1.88;;;22.90;99.90;;;;;;6098652;23;20048;-80
2022/07/27 12:51:09;;;;;;;;;;;22.80;99.90;;;;;;6100045;23;20036;-80
2022/07/27 12:53:38;;;;;;;1.13;1.02;;;22.80;99.90;;;;;;6157930;23;19946;-80
2022/07/27 12:56:11;;;;;;;2.58;2.00;;;23.00;99.90;;;;;;6125506;23;20022;-79
2022/07/27 12:58:55;;;;;;;2.03;1.38;;;23.20;99.90;;;;;;6156879;23;20032;-80
2022/07/27 13:01:24;;;;;;;2.42;1.60;;;23.30;99.90;;;;;;6159998;23;20024;-79
2022/07/27 13:03:52;;;;;;;1.48;1.30;;;23.30;99.90;;;;;;6151756;23;20036;-79
2022/07/27 13:06:21;;;;;;;2.78;1.30;;;23.30;99.90;;;;;;6131728;23;20040;-80
2022/07/27 13:08:49;;;;;;;1.55;1.45;;;23.50;99.90;;;;;;6122813;23;20026;-80
2022/07/27 13:11:17;;;;;;;2.97;1.73;;;23.60;99.90;;;;;;6104368;23;20578;-79
2022/07/27 13:13:45;;;;;;;2.13;1.67;;;23.60;99.90;;;;;;6123309;23;20018;-79